createdAt,value
2022-09-20T00:00:47.667Z,98292.00
2022-09-20T00:04:49.015Z,98290.00
2022-09-20T00:08:50.311Z,98297.00
2022-09-20T00:12:51.763Z,98287.00
2022-09-20T00:16:52.809Z,98282.00
2022-09-20T00:20:53.760Z,98288.00
2022-09-20T00:24:54.610Z,98291.00
2022-09-20T00:28:57.668Z,98292.00
2022-09-20T00:32:58.850Z,98288.00
2022-09-20T00:36:59.687Z,98283.00
2022-09-20T00:41:00.649Z,98283.00
2022-09-20T00:45:07.775Z,98284.00
2022-09-20T00:49:21.591Z,98283.00
2022-09-20T00:53:35.974Z,98284.00
2022-09-20T00:57:38.130Z,98292.00
2022-09-20T01:01:39.482Z,98286.00
2022-09-20T01:05:42.595Z,98291.00
2022-09-20T01:09:43.716Z,98287.00
2022-09-20T01:13:44.641Z,98284.00
2022-09-20T01:17:49.216Z,98274.00
2022-09-20T01:21:51.886Z,98280.00
2022-09-20T01:26:19.668Z,98275.00
2022-09-20T01:30:24.380Z,98286.00
2022-09-20T01:34:31.908Z,98287.00
2022-09-20T01:38:39.315Z,98281.00
2022-09-20T01:42:44.284Z,98274.00
2022-09-20T01:46:47.327Z,98270.00
2022-09-20T01:51:03.670Z,98269.00
2022-09-20T01:55:28.140Z,98268.00
2022-09-20T01:59:38.345Z,98281.00
2022-09-20T02:03:52.099Z,98285.00
2022-09-20T02:08:23.421Z,98279.00
2022-09-20T02:12:34.094Z,98279.00
2022-09-20T02:16:47.351Z,98285.00
2022-09-20T02:21:13.360Z,98290.00
2022-09-20T02:25:52.416Z,98288.00
2022-09-20T02:30:06.451Z,98296.00
2022-09-20T02:34:19.641Z,98294.00
2022-09-20T02:38:45.691Z,98298.00
2022-09-20T02:43:14.601Z,98295.00
2022-09-20T02:47:34.438Z,98293.00
2022-09-20T02:51:54.262Z,98289.00
2022-09-20T02:56:13.977Z,98284.00
2022-09-20T03:00:27.325Z,98270.00
2022-09-20T03:04:32.030Z,98294.00
2022-09-20T03:08:42.610Z,98297.00
2022-09-20T03:13:04.005Z,98294.00
2022-09-20T03:17:21.090Z,98290.00
2022-09-20T03:21:49.135Z,98289.00
2022-09-20T03:25:56.714Z,98294.00
2022-09-20T03:30:09.375Z,98293.00
2022-09-20T03:34:31.860Z,98300.00
2022-09-20T03:39:02.664Z,98299.00
2022-09-20T03:43:32.797Z,98300.00
2022-09-20T03:48:10.910Z,98305.00
2022-09-20T03:52:21.550Z,98300.00
2022-09-20T03:56:41.820Z,98310.00
2022-09-20T04:01:04.957Z,98300.00
2022-09-20T04:05:18.977Z,98314.00
2022-09-20T04:09:47.547Z,98288.00
2022-09-20T04:13:52.312Z,98317.00
2022-09-20T04:17:57.106Z,98311.00
2022-09-20T04:22:00.188Z,98314.00
2022-09-20T04:26:03.504Z,98309.00
2022-09-20T04:30:19.400Z,98306.00
2022-09-20T04:34:28.834Z,98314.00
2022-09-20T04:38:30.325Z,98305.00
2022-09-20T04:42:47.342Z,98318.00
2022-09-20T04:46:57.950Z,98311.00
2022-09-20T04:51:22.252Z,98314.00
2022-09-20T04:55:44.246Z,98320.00
2022-09-20T05:00:11.960Z,98324.00
2022-09-20T05:04:40.086Z,98329.00
2022-09-20T05:09:02.886Z,98333.00
2022-09-20T05:13:17.111Z,98339.00
2022-09-20T05:17:39.413Z,98333.00
2022-09-20T05:21:52.953Z,98341.00
2022-09-20T05:26:13.196Z,98343.00
2022-09-20T05:30:37.415Z,98349.00
2022-09-20T05:34:54.912Z,98350.00
2022-09-20T05:39:19.662Z,98346.00
2022-09-20T05:43:25.761Z,98356.00
2022-09-20T05:47:42.123Z,98357.00
2022-09-20T05:52:11.311Z,98359.00
2022-09-20T05:56:24.806Z,98365.00
2022-09-20T06:00:28.975Z,98368.00
2022-09-20T06:04:59.495Z,98374.00
2022-09-20T06:09:07.403Z,98373.00
2022-09-20T06:13:24.245Z,98376.00
2022-09-20T06:17:29.136Z,98382.00
2022-09-20T06:21:37.361Z,98380.00
2022-09-20T06:25:55.451Z,98386.00
2022-09-20T06:30:08.799Z,98382.00
2022-09-20T06:34:13.581Z,98390.00
2022-09-20T06:38:58.312Z,98395.00
2022-09-20T06:43:00.153Z,98395.00
2022-09-20T06:47:01.013Z,98401.00
2022-09-20T06:51:01.980Z,98413.00
2022-09-20T06:55:05.309Z,98410.00
2022-09-20T06:59:08.412Z,98407.00
2022-09-20T07:03:11.385Z,98416.00
2022-09-20T07:07:18.820Z,98413.00
2022-09-20T07:11:21.531Z,98409.00
2022-09-20T07:15:24.064Z,98418.00
2022-09-20T07:19:25.112Z,98414.00
2022-09-20T07:23:29.844Z,98406.00
2022-09-20T07:27:30.821Z,98423.00
2022-09-20T07:31:31.871Z,98422.00
2022-09-20T07:35:32.817Z,98418.00
2022-09-20T07:39:33.767Z,98427.00
2022-09-20T07:43:35.802Z,98430.00
2022-09-20T07:47:38.877Z,98437.00
2022-09-20T07:51:39.903Z,98440.00
2022-09-20T07:55:40.834Z,98445.00
2022-09-20T07:59:41.711Z,98443.00
2022-09-20T08:03:44.407Z,98445.00
2022-09-20T08:07:45.410Z,98443.00
2022-09-20T08:11:46.690Z,98448.00
2022-09-20T08:15:48.045Z,98446.00
2022-09-20T08:19:50.132Z,98459.00
2022-09-20T08:23:51.227Z,98465.00
2022-09-20T08:27:53.544Z,98457.00
2022-09-20T08:31:56.491Z,98456.00
2022-09-20T08:35:58.093Z,98385.00
2022-09-20T08:40:02.204Z,98456.00
2022-09-20T08:44:07.025Z,98452.00
2022-09-20T08:48:14.223Z,98450.00
2022-09-20T08:52:20.242Z,98451.00
2022-09-20T08:56:22.184Z,98451.00
2022-09-20T09:00:26.262Z,98459.00
2022-09-20T09:04:36.440Z,98467.00
2022-09-20T09:08:38.828Z,98458.00
2022-09-20T09:12:48.512Z,98458.00
2022-09-20T09:16:45.480Z,98459.00
2022-09-20T09:20:47.089Z,98460.00
2022-09-20T09:25:08.608Z,98448.00
2022-09-20T09:29:17.097Z,98452.00
2022-09-20T09:33:33.235Z,98453.00
2022-09-20T09:37:34.582Z,98450.00
2022-09-20T09:41:36.309Z,98454.00
2022-09-20T09:45:39.115Z,98449.00
2022-09-20T09:49:45.078Z,98338.00
2022-09-20T09:53:48.622Z,98447.00
2022-09-20T09:57:55.115Z,98362.00
2022-09-20T10:02:10.780Z,98446.00
2022-09-20T10:06:24.498Z,98447.00
2022-09-20T10:10:36.317Z,98451.00
2022-09-20T10:14:59.251Z,98442.00
2022-09-20T10:19:25.308Z,98447.00
2022-09-20T10:27:57.783Z,98438.00
2022-09-20T10:32:34.678Z,98434.00
2022-09-20T10:36:45.063Z,98435.00
2022-09-20T10:41:34.456Z,98430.00
2022-09-20T10:46:08.815Z,98437.00
2022-09-20T10:50:23.282Z,98433.00
2022-09-20T10:54:28.351Z,98439.00
2022-09-20T10:58:53.445Z,98440.00
2022-09-20T11:03:01.527Z,98442.00
2022-09-20T11:07:25.165Z,98434.00
2022-09-20T11:11:32.894Z,98438.00
2022-09-20T11:15:37.802Z,98430.00
2022-09-20T11:20:06.407Z,98435.00
2022-09-20T11:24:18.517Z,98437.00
2022-09-20T11:32:36.004Z,98435.00
2022-09-20T11:36:51.651Z,98426.00
2022-09-20T11:41:02.261Z,98438.00
2022-09-20T11:45:03.982Z,98446.00
2022-09-20T11:49:15.480Z,98459.00
2022-09-20T11:53:48.153Z,98399.00
2022-09-20T11:58:04.917Z,98466.00
2022-09-20T12:02:18.698Z,98465.00
2022-09-20T12:06:31.139Z,98386.00
2022-09-20T12:10:35.931Z,98468.00
2022-09-20T12:14:37.687Z,98460.00
2022-09-20T12:18:48.953Z,98447.00
2022-09-20T12:22:50.039Z,98443.00
2022-09-20T12:26:56.155Z,98429.00
2022-09-20T12:31:21.195Z,98433.00
2022-09-20T12:35:43.332Z,98437.00
2022-09-20T12:39:51.014Z,98435.00
2022-09-20T12:43:56.000Z,98430.00
2022-09-20T12:47:56.997Z,98422.00
2022-09-20T12:52:17.635Z,98423.00
2022-09-20T12:56:22.121Z,98422.00
2022-09-20T13:00:40.293Z,98424.00
2022-09-20T13:04:54.966Z,98418.00
2022-09-20T13:09:04.457Z,98426.00
2022-09-20T13:13:20.205Z,98433.00
2022-09-20T13:17:32.259Z,98438.00
2022-09-20T13:21:39.947Z,98439.00
2022-09-20T13:25:43.303Z,98437.00
2022-09-20T13:29:45.999Z,98443.00
2022-09-20T13:33:47.955Z,98449.00
2022-09-20T13:37:55.280Z,98443.00
2022-09-20T13:42:03.100Z,98440.00
2022-09-20T13:46:19.790Z,98450.00
2022-09-20T13:50:27.876Z,98448.00
2022-09-20T13:54:31.717Z,98430.00
2022-09-20T13:58:36.563Z,98442.00
2022-09-20T14:02:39.484Z,98442.00
2022-09-20T14:06:41.760Z,98437.00
2022-09-20T14:10:43.586Z,98443.00
2022-09-20T14:14:46.916Z,98451.00
2022-09-20T14:18:48.970Z,98457.00
2022-09-20T14:22:50.032Z,98451.00
2022-09-20T14:27:21.382Z,98451.00
2022-09-20T14:31:33.933Z,98455.00
2022-09-20T14:35:37.522Z,98447.00
2022-09-20T14:39:46.081Z,98447.00
2022-09-20T14:43:52.839Z,98457.00
2022-09-20T14:48:10.441Z,98449.00
2022-09-20T14:52:29.700Z,98447.00
2022-09-20T14:56:37.150Z,98445.00
2022-09-20T15:01:04.633Z,98449.00
2022-09-20T15:05:08.734Z,98449.00
2022-09-20T15:09:12.691Z,98450.00
2022-09-20T15:13:16.836Z,98444.00
2022-09-20T15:17:22.101Z,98436.00
2022-09-20T15:21:23.983Z,98448.00
2022-09-20T15:25:25.838Z,98445.00
2022-09-20T15:29:27.881Z,98445.00
2022-09-20T15:33:31.919Z,98441.00
2022-09-20T15:37:33.567Z,98435.00
2022-09-20T15:41:37.284Z,98438.00
2022-09-20T15:45:49.908Z,98442.00
2022-09-20T15:49:52.397Z,98452.00
2022-09-20T15:53:56.629Z,98450.00
2022-09-20T15:57:57.753Z,98456.00
2022-09-20T16:02:00.429Z,98461.00
2022-09-20T16:06:04.931Z,98462.00
2022-09-20T16:10:07.307Z,98458.00
2022-09-20T16:14:08.625Z,98465.00
2022-09-20T16:18:28.408Z,98470.00
2022-09-20T16:22:31.402Z,98474.00
2022-09-20T16:26:34.076Z,98469.00
2022-09-20T16:30:35.268Z,98473.00
2022-09-20T16:34:37.125Z,98480.00
2022-09-20T16:38:39.244Z,98491.00
2022-09-20T16:42:40.955Z,98482.00
2022-09-20T16:46:43.886Z,98491.00
2022-09-20T16:50:48.830Z,98491.00
2022-09-20T16:54:50.051Z,98510.00
2022-09-20T16:58:52.164Z,98489.00
2022-09-20T17:02:53.627Z,98503.00
2022-09-20T17:06:55.087Z,98487.00
2022-09-20T17:11:01.335Z,98496.00
2022-09-20T17:15:03.994Z,98501.00
2022-09-20T17:19:12.089Z,98516.00
2022-09-20T17:23:14.376Z,98498.00
2022-09-20T17:27:17.619Z,98507.00
2022-09-20T17:31:20.658Z,98513.00
2022-09-20T17:35:22.942Z,98522.00
2022-09-20T17:39:25.286Z,98526.00
2022-09-20T17:43:29.608Z,98529.00
2022-09-20T17:47:31.407Z,98537.00
2022-09-20T17:51:35.750Z,98538.00
2022-09-20T17:55:38.948Z,98546.00
2022-09-20T17:59:41.107Z,98546.00
2022-09-20T18:03:45.850Z,98546.00
2022-09-20T18:07:47.030Z,98553.00
2022-09-20T18:11:52.054Z,98548.00
2022-09-20T18:15:54.664Z,98567.00
2022-09-20T18:19:57.599Z,98561.00
2022-09-20T18:23:59.028Z,98565.00
2022-09-20T18:28:02.610Z,98570.00
2022-09-20T18:32:07.715Z,98587.00
2022-09-20T18:36:09.361Z,98584.00
2022-09-20T18:40:10.996Z,98588.00
2022-09-20T18:44:14.185Z,98592.00
2022-09-20T18:48:16.594Z,98593.00
2022-09-20T18:52:22.412Z,98600.00
2022-09-20T18:56:29.596Z,98588.00
2022-09-20T19:00:32.255Z,98601.00
2022-09-20T19:04:49.472Z,98608.00
2022-09-20T19:08:55.468Z,98602.00
2022-09-20T19:13:22.583Z,98611.00
2022-09-20T19:17:28.720Z,98610.00
2022-09-20T19:21:46.175Z,98626.00
2022-09-20T19:25:48.146Z,98626.00
2022-09-20T19:29:50.349Z,98643.00
2022-09-20T19:33:56.981Z,98636.00
2022-09-20T19:38:10.446Z,98638.00
2022-09-20T19:42:23.314Z,98644.00
2022-09-20T19:46:35.441Z,98647.00
2022-09-20T19:50:46.418Z,98651.00
2022-09-20T19:54:50.129Z,98659.00
2022-09-20T19:58:52.992Z,98664.00
2022-09-20T20:02:56.539Z,98665.00
2022-09-20T20:07:07.817Z,98672.00
2022-09-20T20:11:34.607Z,98662.00
2022-09-20T20:15:50.466Z,98663.00
2022-09-20T20:20:17.448Z,98664.00
2022-09-20T20:24:25.547Z,98667.00
2022-09-20T20:28:27.398Z,98665.00
2022-09-20T20:32:29.038Z,98663.00
2022-09-20T20:36:30.804Z,98668.00
2022-09-20T20:40:33.294Z,98666.00
2022-09-20T20:44:34.736Z,98672.00
2022-09-20T20:48:36.798Z,98681.00
2022-09-20T20:52:38.599Z,98681.00
2022-09-20T20:56:41.245Z,98678.00
2022-09-20T21:00:43.246Z,98681.00
2022-09-20T21:04:44.840Z,98677.00
2022-09-20T21:08:49.607Z,98683.00
2022-09-20T21:12:55.388Z,98687.00
2022-09-20T21:16:56.923Z,98691.00
2022-09-20T21:20:58.389Z,98689.00
2022-09-20T21:25:00.048Z,98700.00
2022-09-20T21:29:04.377Z,98694.00
2022-09-20T21:33:05.431Z,98697.00
2022-09-20T21:37:07.430Z,98691.00
2022-09-20T21:41:14.802Z,98703.00
2022-09-20T21:45:18.971Z,98701.00
2022-09-20T21:49:19.955Z,98705.00
2022-09-20T21:53:22.089Z,98700.00
2022-09-20T21:57:23.225Z,98700.00
2022-09-20T22:01:26.607Z,98701.00
2022-09-20T22:05:27.961Z,98708.00
2022-09-20T22:09:30.714Z,98712.00
2022-09-20T22:13:31.999Z,98707.00
2022-09-20T22:17:33.125Z,98712.00
2022-09-20T22:21:36.502Z,98704.00
2022-09-20T22:25:37.470Z,98697.00
2022-09-20T22:29:38.448Z,98696.00
2022-09-20T22:33:50.800Z,98703.00
2022-09-20T22:37:51.784Z,98705.00
2022-09-20T22:41:53.822Z,98702.00
2022-09-20T22:45:58.772Z,98699.00
2022-09-20T22:49:59.701Z,98707.00
2022-09-20T22:54:07.826Z,98712.00
2022-09-20T22:58:08.870Z,98705.00
2022-09-20T23:02:10.075Z,98709.00
2022-09-20T23:06:21.362Z,98712.00
2022-09-20T23:10:22.883Z,98712.00
2022-09-20T23:14:24.582Z,98716.00
2022-09-20T23:18:26.448Z,98712.00
2022-09-20T23:22:28.678Z,98714.00
2022-09-20T23:26:31.584Z,98715.00
2022-09-20T23:30:32.740Z,98708.00
2022-09-20T23:34:33.776Z,98720.00
2022-09-20T23:38:35.569Z,98714.00
2022-09-20T23:42:36.765Z,98722.00
2022-09-20T23:46:38.387Z,98716.00
2022-09-20T23:50:42.480Z,98717.00
2022-09-20T23:54:43.462Z,98719.00
2022-09-20T23:58:45.542Z,98700.00
